KSPW/SPW METAR and TAF weather

Enter ICAO airport designator
Station Type Date Time Source
KSPW METAR 2020/01/19 13:53 UTC NOAA

KSPW 191353Z AUTO 30011KT 10SM CLR M21/M25 A3047 RMK AO2 SLP358 T12111250


Station Type Date Time Source
KSPW Decoded METAR 2020/01/19 13:53 UTC NOAA

SPENCER MUNICIPAL AIRPORT, IA, United States (KSPW) 43-10N 95-13W 403M
Jan 19, 2020 - 08:53 AM EST / 2020.01.19 1353 UTC
Wind: from the WNW (300 degrees) at 13 MPH (11 KT):0
Visibility: 10 mile(s):0
Sky conditions: clear
Temperature: -6.0 F (-21.1 C)
Windchill: -25 F (-32 C):2
Dew Point: -13.0 F (-25.0 C)
Relative Humidity: 70%
Pressure (altimeter): 30.47 in. Hg (1031 hPa)
ob: KSPW 191353Z AUTO 30011KT 10SM CLR M21/M25 A3047 RMK AO2 SLP358 T12111250
cycle: 14

Station Type Date Time Source
KSPW TAF UTC NOAA

Error!

Example: see airport list